Maribel — LAGU6 — position and weather

sailwx.info

Track history (hours):
 
Tides and Currents Weather Stations Pressure Air Temp Water Temp Dewpoint Dewpoint Depression Visibility Wind Speed Wind Dir Waves Ship Positions

Maribel

Last reported at 2015-Jan-25 10:11 UTC. Time now 2015-Jan-29 10:24 UTC.
Position N 32°13' W 117°39'.

Length 227 m; draft 11.6 m.

Type: Tanker. MMSI: 257872000.

Date/timePositionNaut miles runAvg speedWind from/ knotsBaromVisibWave heightAir tempDewpointWater temp
2015-Jan-25 10:11N 32°13' W 117°39'711.1
2015-Jan-25 09:33N 32°20' W 117°43'1111.4
2015-Jan-25 08:34N 32°31' W 117°46'1111.4
2015-Jan-25 07:34N 32°42' W 117°50'1211.6
2015-Jan-25 06:34N 32°53' W 117°55'1211.6
2015-Jan-25 05:33N 33°04' W 117°60'1612.0
2015-Jan-25 04:12N 33°19' W 118°06'28 6.0
2015-Jan-24 23:33N 33°45' W 118°16'0 0.0
2015-Jan-24 06:32N 33°46' W 118°16'0 0.4
2015-Jan-24 05:34N 33°45' W 118°16'2 2.4
2015-Jan-24 04:34N 33°43' W 118°16'6 5.8
2015-Jan-24 03:33N 33°41' W 118°09'0 0.3
2015-Jan-24 02:32N 33°41' W 118°09'0 0.0
2015-Jan-24 01:32N 33°41' W 118°09'0 0.0
2015-Jan-24 00:32N 33°41' W 118°09'0 0.0
2015-Jan-23 23:31N 33°41' W 118°09'0 0.0
2015-Jan-23 22:28N 33°41' W 118°09'0 0.0
2015-Jan-23 21:33N 33°41' W 118°09'0 0.0
2015-Jan-23 20:33N 33°41' W 118°09'0 0.1
2015-Jan-23 19:20N 33°41' W 118°09'0 0.1
2015-Jan-23 18:32N 33°41' W 118°09'0 0.1
2015-Jan-23 17:31N 33°41' W 118°09'0 0.0
2015-Jan-23 16:31N 33°41' W 118°09'0 0.0
2015-Jan-23 15:31N 33°41' W 118°09'0 0.1
2015-Jan-23 14:33N 33°41' W 118°09'0 0.1
2015-Jan-23 13:33N 33°41' W 118°09'0 0.0
2015-Jan-23 12:14N 33°41' W 118°09'0 0.0
2015-Jan-23 11:05N 33°41' W 118°09'0 0.1
2015-Jan-23 10:31N 33°41' W 118°09'0 0.1
2015-Jan-23 09:31N 33°41' W 118°09'0 0.0
2015-Jan-23 08:31N 33°41' W 118°09'0 0.1
2015-Jan-23 07:27N 33°41' W 118°09'0 0.1
2015-Jan-23 06:33N 33°41' W 118°09'0 0.0
2015-Jan-23 05:33N 33°41' W 118°09'0 0.0
2015-Jan-23 04:32N 33°41' W 118°09'0 0.0
2015-Jan-23 03:31N 33°41' W 118°09'0 0.0
2015-Jan-23 02:25N 33°41' W 118°09'0 0.0
2015-Jan-23 01:25N 33°41' W 118°09'0 0.0
2015-Jan-23 00:33N 33°41' W 118°09'0 0.0
2015-Jan-22 23:33N 33°41' W 118°09'0 0.0
2015-Jan-22 22:32N 33°41' W 118°09'0 0.0
2015-Jan-22 21:32N 33°41' W 118°09'0 0.0
2015-Jan-22 20:31N 33°41' W 118°09'0 0.1
2015-Jan-22 19:31N 33°41' W 118°09'0 0.1
2015-Jan-22 18:28N 33°41' W 118°09'0 0.1
2015-Jan-22 17:33N 33°41' W 118°09'0 0.0
2015-Jan-22 16:33N 33°41' W 118°09'0 0.0
2015-Jan-22 15:32N 33°41' W 118°09'0 0.0
2015-Jan-22 14:32N 33°41' W 118°09'0 0.0
2015-Jan-22 13:31N 33°41' W 118°09'1 0.7
2015-Jan-22 12:34N 33°40' W 118°10'9 8.5
2015-Jan-22 11:33N 33°36' W 118°19'1211.5
2015-Jan-22 10:33N 33°41' W 118°31'1211.7
2015-Jan-22 09:34N 33°47' W 118°43'1211.6
2015-Jan-22 08:33N 33°53' W 118°55'7011.0
2015-Jan-22 02:13N 34°16' W 120°15'811.3
2015-Jan-22 01:32N 34°18' W 120°24'1111.4
2015-Jan-22 00:33N 34°21' W 120°37'1211.6
2015-Jan-21 23:34N 34°24' W 120°50'811.5
2015-Jan-21 22:50N 34°25' W 121°00'111.0
2015-Jan-21 22:46N 34°25' W 121°01'211.4
2015-Jan-21 22:33N 34°25' W 121°04'9810.9
2015-Jan-21 13:33N 34°35' W 123°02'1211.0
2015-Jan-21 12:28N 34°36' W 123°17'1310.9
2015-Jan-21 11:16N 34°37' W 123°33'1010.5
2015-Jan-21 10:17N 34°38' W 123°45'810.3
2015-Jan-21 09:28N 34°39' W 123°55'1010.6
2015-Jan-21 08:32N 34°40' W 124°07'3710.7
2015-Jan-21 05:04N 34°43' W 124°52'6311.0
2015-Jan-20 23:20N 34°47' W 126°08'30 6.3
2015-Jan-20 18:33N 34°53' W 126°45'  
Track history (hours):
 
Tides and Currents Weather Stations Pressure Air Temp Water Temp Dewpoint Dewpoint Depression Visibility Wind Speed Wind Dir Waves Ship Positions

Maribel

Last reported at 2015-Jan-25 10:11 UTC. Time now 2015-Jan-29 10:24 UTC.
Position N 32°13' W 117°39'.

Length 227 m; draft 11.6 m.

Type: Tanker. MMSI: 257872000.

Date/timePositionNaut miles runAvg speedWind from/ knotsBaromVisibWave heightAir tempDewpointWater temp
2015-Jan-25 10:11N 32°13' W 117°39'711.1
2015-Jan-25 09:33N 32°20' W 117°43'1111.4
2015-Jan-25 08:34N 32°31' W 117°46'1111.4
2015-Jan-25 07:34N 32°42' W 117°50'1211.6
2015-Jan-25 06:34N 32°53' W 117°55'1211.6
2015-Jan-25 05:33N 33°04' W 117°60'1612.0
2015-Jan-25 04:12N 33°19' W 118°06'28 6.0
2015-Jan-24 23:33N 33°45' W 118°16'0 0.0
2015-Jan-24 06:32N 33°46' W 118°16'0 0.4
2015-Jan-24 05:34N 33°45' W 118°16'2 2.4
2015-Jan-24 04:34N 33°43' W 118°16'6 5.8
2015-Jan-24 03:33N 33°41' W 118°09'0 0.3
2015-Jan-24 02:32N 33°41' W 118°09'0 0.0
2015-Jan-24 01:32N 33°41' W 118°09'0 0.0
2015-Jan-24 00:32N 33°41' W 118°09'0 0.0
2015-Jan-23 23:31N 33°41' W 118°09'0 0.0
2015-Jan-23 22:28N 33°41' W 118°09'0 0.0
2015-Jan-23 21:33N 33°41' W 118°09'0 0.0
2015-Jan-23 20:33N 33°41' W 118°09'0 0.1
2015-Jan-23 19:20N 33°41' W 118°09'0 0.1
2015-Jan-23 18:32N 33°41' W 118°09'0 0.1
2015-Jan-23 17:31N 33°41' W 118°09'0 0.0
2015-Jan-23 16:31N 33°41' W 118°09'0 0.0
2015-Jan-23 15:31N 33°41' W 118°09'0 0.1
2015-Jan-23 14:33N 33°41' W 118°09'0 0.1
2015-Jan-23 13:33N 33°41' W 118°09'0 0.0
2015-Jan-23 12:14N 33°41' W 118°09'0 0.0
2015-Jan-23 11:05N 33°41' W 118°09'0 0.1
2015-Jan-23 10:31N 33°41' W 118°09'0 0.1
2015-Jan-23 09:31N 33°41' W 118°09'0 0.0
2015-Jan-23 08:31N 33°41' W 118°09'0 0.1
2015-Jan-23 07:27N 33°41' W 118°09'0 0.1
2015-Jan-23 06:33N 33°41' W 118°09'0 0.0
2015-Jan-23 05:33N 33°41' W 118°09'0 0.0
2015-Jan-23 04:32N 33°41' W 118°09'0 0.0
2015-Jan-23 03:31N 33°41' W 118°09'0 0.0
2015-Jan-23 02:25N 33°41' W 118°09'0 0.0
2015-Jan-23 01:25N 33°41' W 118°09'0 0.0
2015-Jan-23 00:33N 33°41' W 118°09'0 0.0
2015-Jan-22 23:33N 33°41' W 118°09'0 0.0
2015-Jan-22 22:32N 33°41' W 118°09'0 0.0
2015-Jan-22 21:32N 33°41' W 118°09'0 0.0
2015-Jan-22 20:31N 33°41' W 118°09'0 0.1
2015-Jan-22 19:31N 33°41' W 118°09'0 0.1
2015-Jan-22 18:28N 33°41' W 118°09'0 0.1
2015-Jan-22 17:33N 33°41' W 118°09'0 0.0
2015-Jan-22 16:33N 33°41' W 118°09'0 0.0
2015-Jan-22 15:32N 33°41' W 118°09'0 0.0
2015-Jan-22 14:32N 33°41' W 118°09'0 0.0
2015-Jan-22 13:31N 33°41' W 118°09'1 0.7
2015-Jan-22 12:34N 33°40' W 118°10'9 8.5
2015-Jan-22 11:33N 33°36' W 118°19'1211.5
2015-Jan-22 10:33N 33°41' W 118°31'1211.7
2015-Jan-22 09:34N 33°47' W 118°43'1211.6
2015-Jan-22 08:33N 33°53' W 118°55'7011.0
2015-Jan-22 02:13N 34°16' W 120°15'811.3
2015-Jan-22 01:32N 34°18' W 120°24'1111.4
2015-Jan-22 00:33N 34°21' W 120°37'1211.6
2015-Jan-21 23:34N 34°24' W 120°50'811.5
2015-Jan-21 22:50N 34°25' W 121°00'111.0
2015-Jan-21 22:46N 34°25' W 121°01'211.4
2015-Jan-21 22:33N 34°25' W 121°04'9810.9
2015-Jan-21 13:33N 34°35' W 123°02'1211.0
2015-Jan-21 12:28N 34°36' W 123°17'1310.9
2015-Jan-21 11:16N 34°37' W 123°33'1010.5
2015-Jan-21 10:17N 34°38' W 123°45'810.3
2015-Jan-21 09:28N 34°39' W 123°55'1010.6
2015-Jan-21 08:32N 34°40' W 124°07'3710.7
2015-Jan-21 05:04N 34°43' W 124°52'6311.0
2015-Jan-20 23:20N 34°47' W 126°08'30 6.3
2015-Jan-20 18:33N 34°53' W 126°45'  

Dump ship's entire track history